Pulleys Mill, Illinois
Current Conditions -  °F | °C
As of 12:52 PM on Tuesday 21 Oct 2014 (Local Time) from KMWA Reporting Station
Clear Clear  
Wind Chill: 19°   Ceiling: Unl
Heat Index: 19°   Visibility: 20mi
Dew Point: 10°   Wind: 12mph
Humidity: 56%   Direction: 360°N
Pressure: 30.11"   Gusts: NA
Location:  37.565°N, 88.982°W
Report Text: KMWA 211752Z 36010KT 20SM SKC 19/10 A3011
Loading
Personal Weather Stations






























Interactive Weather Map
Tropical Storm Tracking
New forecast layout! Learn more

10-Day Weather Forecast

Advertisements
Track Severe Weather on mobile